Time;durP1;ratioP1;P1;durP2;ratioP2;P2;SDS_P1;SDS_P2;PMS_P1;PMS_P2;Temp;Humidity;BMP_temperature;BMP_pressure;BME280_temperature;BME280_humidity;BME280_pressure;Samples;Min_cycle;Max_cycle;Signal;HPM_P1;HPM_P2
2023/05/25 00:02:56;;;;;;;9.30;6.20;;;11.40;67.40;;;;;;6299612;28;20240;-86
2023/05/25 00:06:01;;;;;;;8.33;6.07;;;11.40;67.40;;;;;;6286548;28;20742;-86
2023/05/25 00:09:05;;;;;;;10.27;6.07;;;11.40;67.40;;;;;;6279024;27;20243;-86
2023/05/25 00:12:08;;;;;;;8.30;6.97;;;11.40;67.30;;;;;;6271100;28;20237;-88
2023/05/25 00:15:12;;;;;;;6.40;5.80;;;11.40;67.50;;;;;;6285388;28;20234;-85
2023/05/25 00:18:17;;;;;;;11.40;6.90;;;11.40;67.50;;;;;;6292282;28;20241;-87
2023/05/25 00:21:20;;;;;;;9.33;6.73;;;11.40;67.70;;;;;;6292691;28;20247;-84
2023/05/25 00:24:23;;;;;;;6.93;6.40;;;11.30;67.70;;;;;;6292608;28;20248;-85
2023/05/25 00:27:26;;;;;;;6.70;6.10;;;11.40;67.70;;;;;;6289840;27;20276;-85
2023/05/25 00:30:29;;;;;;;7.37;6.57;;;11.40;67.50;;;;;;6292304;28;20283;-86
2023/05/25 00:33:34;;;;;;;9.83;6.70;;;11.40;67.60;;;;;;6292817;28;20739;-84
2023/05/25 00:36:37;;;;;;;7.17;6.47;;;11.50;67.50;;;;;;6290460;27;20307;-85
2023/05/25 00:39:41;;;;;;;11.07;7.27;;;11.50;67.50;;;;;;6298112;27;20229;-85
2023/05/25 00:42:44;;;;;;;9.10;6.77;;;11.50;67.30;;;;;;6300163;27;20321;-85
2023/05/25 00:45:48;;;;;;;7.37;6.80;;;11.50;67.20;;;;;;6288161;28;20310;-83
2023/05/25 00:48:55;;;;;;;6.47;5.93;;;11.60;67.10;;;;;;6296299;27;20319;-83
2023/05/25 00:51:59;;;;;;;11.73;7.13;;;11.70;67.00;;;;;;6300006;27;20967;-87
2023/05/25 00:55:04;;;;;;;7.90;7.10;;;11.70;66.80;;;;;;6286095;27;20656;-86
2023/05/25 00:58:08;;;;;;;8.53;6.50;;;11.70;66.70;;;;;;6292309;28;20237;-84
2023/05/25 01:01:13;;;;;;;7.00;6.13;;;11.70;66.70;;;;;;6314355;27;20250;-85
2023/05/25 01:04:21;;;;;;;6.87;6.37;;;11.70;66.60;;;;;;6280900;28;20239;-82
2023/05/25 01:07:26;;;;;;;7.73;6.30;;;11.70;66.40;;;;;;6300054;27;20241;-84
2023/05/25 01:10:33;;;;;;;11.77;6.67;;;11.70;66.50;;;;;;6298401;27;20281;-85
2023/05/25 01:13:37;;;;;;;7.00;6.30;;;11.60;66.50;;;;;;6286255;27;20339;-85
2023/05/25 01:16:42;;;;;;;8.03;6.43;;;11.60;66.50;;;;;;6297040;27;20225;-85
2023/05/25 01:19:48;;;;;;;8.80;6.53;;;11.50;66.60;;;;;;6299167;27;20241;-83
2023/05/25 01:23:16;;;;;;;6.83;5.90;;;11.50;66.80;;;;;;6297277;27;20253;-86
2023/05/25 01:26:23;;;;;;;9.77;7.20;;;11.50;66.70;;;;;;6290707;28;20756;-85
2023/05/25 01:29:29;;;;;;;10.83;6.87;;;11.40;67.00;;;;;;6313931;27;20244;-84
2023/05/25 01:32:34;;;;;;;7.60;7.00;;;11.40;67.00;;;;;;6306227;28;20233;-79
2023/05/25 01:35:38;;;;;;;9.77;7.30;;;11.40;67.20;;;;;;6314004;28;20222;-82
2023/05/25 01:38:43;;;;;;;7.77;6.50;;;11.40;67.20;;;;;;6317399;28;20228;-80
2023/05/25 01:41:46;;;;;;;7.00;6.40;;;11.40;67.00;;;;;;6312530;27;20234;-87
2023/05/25 01:44:50;;;;;;;6.80;6.13;;;11.40;67.10;;;;;;6289945;28;20231;-83
2023/05/25 01:48:01;;;;;;;7.53;6.30;;;11.30;67.30;;;;;;6288477;28;20229;-86
2023/05/25 01:51:15;;;;;;;7.90;7.20;;;11.30;67.30;;;;;;6289316;27;20237;-83
2023/05/25 01:54:22;;;;;;;7.93;7.03;;;11.30;67.60;;;;;;6297641;27;20248;-85
2023/05/25 01:57:28;;;;;;;8.73;7.40;;;11.20;67.60;;;;;;6282330;28;20238;-86
2023/05/25 02:00:33;;;;;;;7.87;7.00;;;11.10;67.90;;;;;;6303420;28;20245;-86
2023/05/25 02:03:37;;;;;;;6.60;6.17;;;11.10;67.90;;;;;;6287482;28;20253;-86
2023/05/25 02:06:40;;;;;;;8.87;7.17;;;11.10;67.90;;;;;;6282123;28;20230;-85
2023/05/25 02:09:45;;;;;;;7.60;6.83;;;11.10;68.20;;;;;;6289993;28;20233;-83
2023/05/25 02:12:48;;;;;;;7.57;6.60;;;11.00;68.30;;;;;;6291062;27;20260;-86
2023/05/25 02:15:52;;;;;;;8.60;7.63;;;11.00;68.50;;;;;;6298819;27;20813;-85
2023/05/25 02:18:57;;;;;;;12.23;7.97;;;11.00;68.50;;;;;;6293221;27;20241;-84
2023/05/25 02:22:00;;;;;;;11.27;7.63;;;10.90;69.00;;;;;;6286276;28;20248;-85
2023/05/25 02:25:07;;;;;;;9.33;7.77;;;10.90;69.10;;;;;;6313623;27;20229;-87
2023/05/25 02:28:10;;;;;;;9.80;7.87;;;10.90;69.00;;;;;;6281365;28;20632;-85
2023/05/25 02:31:14;;;;;;;8.60;7.60;;;10.90;69.30;;;;;;6288957;28;20232;-85
2023/05/25 02:34:23;;;;;;;8.97;7.47;;;10.80;69.50;;;;;;6296032;28;20237;-85
2023/05/25 02:37:26;;;;;;;9.27;7.90;;;10.80;69.40;;;;;;6283694;28;20240;-84
2023/05/25 02:40:31;;;;;;;8.70;7.80;;;10.80;69.50;;;;;;6288836;28;20241;-84
2023/05/25 02:43:38;;;;;;;9.13;7.97;;;10.70;69.80;;;;;;6296992;27;20725;-85
2023/05/25 02:46:41;;;;;;;9.10;7.10;;;10.70;69.90;;;;;;6285441;28;20245;-85
2023/05/25 02:49:44;;;;;;;8.70;7.67;;;10.60;69.90;;;;;;6289348;28;20240;-85
2023/05/25 02:52:48;;;;;;;8.27;7.40;;;10.60;70.00;;;;;;6289561;28;20259;-84
2023/05/25 02:55:52;;;;;;;9.23;8.27;;;10.60;70.20;;;;;;6288010;28;20241;-84
2023/05/25 02:58:56;;;;;;;9.27;8.20;;;10.60;70.20;;;;;;6307703;28;20236;-84
2023/05/25 03:01:59;;;;;;;11.90;8.67;;;10.60;70.40;;;;;;6293278;28;20244;-86
2023/05/25 03:05:02;;;;;;;12.40;9.47;;;10.60;70.70;;;;;;6289301;28;20770;-86
2023/05/25 03:08:07;;;;;;;9.80;8.23;;;10.60;70.60;;;;;;6314949;27;20244;-84
2023/05/25 03:11:11;;;;;;;11.50;8.00;;;10.50;70.60;;;;;;6295001;27;20320;-86
2023/05/25 03:14:15;;;;;;;11.87;8.70;;;10.50;70.80;;;;;;6299891;27;20233;-85
2023/05/25 03:17:18;;;;;;;12.17;9.20;;;10.50;70.70;;;;;;6286086;28;20240;-86
2023/05/25 03:20:23;;;;;;;9.37;8.47;;;10.50;71.00;;;;;;6291994;27;20316;-84
2023/05/25 03:23:26;;;;;;;9.57;8.67;;;10.50;71.10;;;;;;6283954;28;20324;-86
2023/05/25 03:26:31;;;;;;;10.20;8.20;;;10.50;71.00;;;;;;6292881;28;20236;-86
2023/05/25 03:29:34;;;;;;;12.30;8.23;;;10.50;71.00;;;;;;6296865;27;20251;-86
2023/05/25 03:32:38;;;;;;;9.53;8.53;;;10.50;71.00;;;;;;6273864;28;20731;-80
2023/05/25 03:35:41;;;;;;;9.47;8.23;;;10.50;70.90;;;;;;6292209;28;20716;-82
2023/05/25 03:38:45;;;;;;;9.37;8.40;;;10.50;71.10;;;;;;6287750;28;20233;-81
2023/05/25 03:41:50;;;;;;;9.17;8.27;;;10.50;71.10;;;;;;6283881;28;20225;-82
2023/05/25 03:44:53;;;;;;;14.80;9.73;;;10.50;71.00;;;;;;6286908;28;20328;-80
2023/05/25 03:47:57;;;;;;;16.83;10.13;;;10.50;71.40;;;;;;6285421;28;20251;-79
2023/05/25 03:51:00;;;;;;;13.03;10.00;;;10.60;71.60;;;;;;6290738;28;20236;-81
2023/05/25 03:54:03;;;;;;;17.53;9.93;;;10.50;71.70;;;;;;6299335;27;20233;-79
2023/05/25 03:57:08;;;;;;;12.63;9.50;;;10.60;71.70;;;;;;6292174;28;20244;-82
2023/05/25 04:00:12;;;;;;;16.03;9.07;;;10.60;71.80;;;;;;6322309;27;20236;-82
2023/05/25 04:03:16;;;;;;;12.63;9.93;;;10.60;71.70;;;;;;6290838;28;20237;-79
2023/05/25 04:06:24;;;;;;;12.10;8.67;;;10.60;71.60;;;;;;6293320;28;20767;-81
2023/05/25 04:09:27;;;;;;;11.03;9.57;;;10.70;71.60;;;;;;6287046;28;20755;-78
2023/05/25 04:12:32;;;;;;;14.97;9.70;;;10.70;71.50;;;;;;6291519;28;20268;-80
2023/05/25 04:15:35;;;;;;;14.20;10.43;;;10.80;71.80;;;;;;6291683;28;20739;-82
2023/05/25 04:18:38;;;;;;;17.40;9.30;;;10.80;71.80;;;;;;6293424;28;20244;-81
2023/05/25 04:21:42;;;;;;;16.27;10.40;;;10.90;71.70;;;;;;6287827;28;20753;-80
2023/05/25 04:24:45;;;;;;;12.77;10.00;;;11.00;71.50;;;;;;6290582;28;20237;-80
2023/05/25 04:27:50;;;;;;;13.07;9.40;;;11.10;71.40;;;;;;6277153;27;20225;-80
2023/05/25 04:30:55;;;;;;;13.43;9.77;;;11.30;71.10;;;;;;6314843;27;20260;-80
2023/05/25 04:34:01;;;;;;;11.17;9.97;;;11.30;70.90;;;;;;6291373;27;20294;-80
2023/05/25 04:37:07;;;;;;;17.03;10.90;;;11.40;70.80;;;;;;6292761;28;20267;-82
2023/05/25 04:40:12;;;;;;;16.03;11.27;;;11.40;71.10;;;;;;6295952;28;20312;-81
2023/05/25 04:43:19;;;;;;;16.87;11.03;;;11.40;71.00;;;;;;6288591;28;20260;-82
2023/05/25 04:46:22;;;;;;;15.77;11.43;;;11.50;70.70;;;;;;6280170;28;20270;-82
2023/05/25 04:49:26;;;;;;;16.40;11.17;;;11.50;70.80;;;;;;6297983;28;20241;-82
2023/05/25 04:52:29;;;;;;;11.67;10.50;;;11.60;70.80;;;;;;6291186;28;20244;-81
2023/05/25 04:55:32;;;;;;;16.70;10.00;;;11.70;70.70;;;;;;6285995;28;20326;-81
2023/05/25 04:58:37;;;;;;;18.47;10.97;;;11.90;70.30;;;;;;6289113;28;20264;-81
2023/05/25 05:01:40;;;;;;;10.93;9.70;;;12.20;69.80;;;;;;6290395;28;20394;-81
2023/05/25 05:04:43;;;;;;;13.53;10.13;;;12.50;69.30;;;;;;6302093;27;20240;-78
2023/05/25 05:07:46;;;;;;;16.50;10.20;;;12.70;68.60;;;;;;6302099;27;20904;-81
2023/05/25 05:10:50;;;;;;;9.80;8.77;;;13.00;68.30;;;;;;6296032;28;20233;-80
2023/05/25 05:13:54;;;;;;;19.50;10.23;;;13.20;67.90;;;;;;6299716;28;20248;-82
2023/05/25 05:16:58;;;;;;;15.37;9.33;;;13.50;67.20;;;;;;6294873;28;20311;-82
2023/05/25 05:20:01;;;;;;;13.13;9.20;;;13.80;66.40;;;;;;6291553;28;20229;-82
2023/05/25 05:23:04;;;;;;;11.43;9.30;;;14.00;65.90;;;;;;6295428;27;20260;-82
2023/05/25 05:26:10;;;;;;;11.73;9.90;;;14.20;65.20;;;;;;6291752;28;20244;-77
2023/05/25 05:29:15;;;;;;;17.60;9.70;;;14.50;64.60;;;;;;6292356;28;20718;-77
2023/05/25 05:32:19;;;;;;;12.93;8.70;;;14.70;64.00;;;;;;6296337;28;20862;-77
2023/05/25 05:35:22;;;;;;;14.23;9.17;;;14.80;63.50;;;;;;6289531;28;20372;-78
2023/05/25 05:38:25;;;;;;;11.13;9.23;;;15.00;63.50;;;;;;6299552;28;20272;-77
2023/05/25 05:41:28;;;;;;;13.73;9.53;;;15.40;62.50;;;;;;6328047;27;20254;-78
2023/05/25 05:44:33;;;;;;;14.60;9.50;;;15.50;62.20;;;;;;6345245;28;20348;-78
2023/05/25 05:47:36;;;;;;;12.63;9.23;;;15.70;61.70;;;;;;6324368;27;20243;-79
2023/05/25 05:50:40;;;;;;;17.27;10.57;;;15.50;62.50;;;;;;6318110;28;20229;-80
2023/05/25 05:53:44;;;;;;;13.00;9.23;;;15.80;61.50;;;;;;6325338;28;20285;-80
2023/05/25 05:56:47;;;;;;;15.50;9.60;;;16.10;61.50;;;;;;6319646;28;20233;-80
2023/05/25 05:59:53;;;;;;;15.90;9.70;;;16.50;60.70;;;;;;6343969;27;20257;-78
2023/05/25 06:02:57;;;;;;;13.90;9.60;;;16.80;60.00;;;;;;6350834;27;20227;-81
2023/05/25 06:06:00;;;;;;;12.63;9.10;;;17.00;59.70;;;;;;6320611;27;20229;-82
2023/05/25 06:09:05;;;;;;;12.07;8.73;;;17.20;58.90;;;;;;6293011;27;20298;-81
2023/05/25 06:12:09;;;;;;;16.70;9.00;;;17.40;58.90;;;;;;6288862;28;20244;-82
2023/05/25 06:15:14;;;;;;;18.57;9.87;;;17.60;58.40;;;;;;6286334;28;20320;-83
2023/05/25 06:18:17;;;;;;;17.37;9.53;;;17.60;58.20;;;;;;6288644;28;20237;-83
2023/05/25 06:21:20;;;;;;;11.97;8.93;;;17.50;57.70;;;;;;6284634;28;20241;-82
2023/05/25 06:24:24;;;;;;;14.53;7.90;;;17.20;58.70;;;;;;6292898;27;20237;-78
2023/05/25 06:27:27;;;;;;;13.00;8.37;;;17.60;58.40;;;;;;6295159;28;20382;-81
2023/05/25 06:30:32;;;;;;;12.30;7.60;;;18.00;57.40;;;;;;6282933;28;20234;-81
2023/05/25 06:33:35;;;;;;;16.63;9.67;;;18.40;56.50;;;;;;6292560;27;20306;-81
2023/05/25 06:36:38;;;;;;;19.70;9.03;;;18.50;55.80;;;;;;6276094;28;20241;-82
2023/05/25 06:39:42;;;;;;;15.90;8.17;;;18.70;56.60;;;;;;6293548;28;20240;-79
2023/05/25 06:42:45;;;;;;;14.97;8.27;;;19.10;55.20;;;;;;6297045;28;20221;-79
2023/05/25 06:45:50;;;;;;;15.40;8.70;;;19.30;54.50;;;;;;6321593;28;20224;-77
2023/05/25 06:48:53;;;;;;;22.60;9.17;;;19.10;54.60;;;;;;6345031;28;20426;-78
2023/05/25 06:51:56;;;;;;;19.13;9.60;;;18.60;55.00;;;;;;6330664;28;20224;-78
2023/05/25 06:54:59;;;;;;;14.57;8.73;;;18.00;56.00;;;;;;6325673;28;20229;-78
2023/05/25 06:58:03;;;;;;;21.33;9.43;;;18.00;56.20;;;;;;6322525;28;20285;-80
2023/05/25 07:01:07;;;;;;;18.17;8.93;;;18.20;56.30;;;;;;6314910;28;20222;-75
2023/05/25 07:04:10;;;;;;;13.37;7.63;;;18.60;55.80;;;;;;6327472;27;20284;-76
2023/05/25 07:07:13;;;;;;;14.70;7.40;;;19.00;55.70;;;;;;6322121;27;20231;-78
2023/05/25 07:10:17;;;;;;;17.13;8.27;;;19.10;54.60;;;;;;6312147;27;20309;-80
2023/05/25 07:13:20;;;;;;;11.27;7.00;;;19.30;53.50;;;;;;6290788;28;20255;-79
2023/05/25 07:16:25;;;;;;;14.27;7.17;;;19.50;53.40;;;;;;6304325;28;20289;-82
2023/05/25 07:19:28;;;;;;;12.57;7.30;;;19.70;53.50;;;;;;6289442;28;20824;-81
2023/05/25 07:22:31;;;;;;;11.43;5.97;;;19.70;51.80;;;;;;6303011;27;20244;-82
2023/05/25 07:25:35;;;;;;;16.20;6.83;;;19.50;53.00;;;;;;6327765;28;20240;-80
2023/05/25 07:28:38;;;;;;;8.47;5.87;;;19.70;52.30;;;;;;6290865;28;20230;-81
2023/05/25 07:31:42;;;;;;;9.30;6.27;;;19.90;52.60;;;;;;6287361;28;20241;-81
2023/05/25 07:34:46;;;;;;;10.20;6.00;;;19.70;51.00;;;;;;6288008;28;20236;-81
2023/05/25 07:37:56;;;;;;;12.23;5.60;;;19.30;51.30;;;;;;6293397;28;20237;-82
2023/05/25 07:41:00;;;;;;;8.87;5.07;;;19.20;52.10;;;;;;6306881;27;20321;-81
2023/05/25 07:44:03;;;;;;;10.40;5.40;;;19.00;52.20;;;;;;6294841;28;20221;-83
2023/05/25 07:47:07;;;;;;;11.10;5.30;;;19.10;51.50;;;;;;6291673;28;20736;-83
2023/05/25 07:50:11;;;;;;;9.17;4.70;;;19.00;51.00;;;;;;6304826;27;20228;-81
2023/05/25 07:53:15;;;;;;;8.17;5.20;;;19.10;50.50;;;;;;6288090;28;20233;-79
2023/05/25 07:56:18;;;;;;;8.00;5.20;;;19.30;50.70;;;;;;6285682;28;20252;-82
2023/05/25 07:59:21;;;;;;;10.67;5.77;;;18.80;51.60;;;;;;6300173;28;20233;-82
2023/05/25 08:02:26;;;;;;;8.13;5.27;;;18.60;51.40;;;;;;6290055;28;20248;-80
2023/05/25 08:05:29;;;;;;;8.70;5.23;;;18.30;52.20;;;;;;6295197;28;20259;-81
2023/05/25 08:08:33;;;;;;;6.47;5.33;;;18.30;52.50;;;;;;6288542;28;20260;-81
2023/05/25 08:11:36;;;;;;;11.10;5.83;;;18.40;52.50;;;;;;6293957;28;20241;-79
2023/05/25 08:14:39;;;;;;;11.23;5.63;;;18.30;52.30;;;;;;6289817;28;20237;-81
2023/05/25 08:17:44;;;;;;;16.40;5.70;;;18.00;53.20;;;;;;6298372;28;20236;-77
2023/05/25 08:20:48;;;;;;;5.83;5.33;;;18.30;52.50;;;;;;6296225;27;20661;-81
2023/05/25 08:23:52;;;;;;;7.03;4.93;;;18.30;52.60;;;;;;6290392;28;20874;-80
2023/05/25 08:26:56;;;;;;;7.13;5.43;;;18.30;52.80;;;;;;6291347;27;20284;-81
2023/05/25 08:29:59;;;;;;;8.47;5.63;;;18.20;52.00;;;;;;6293084;27;20260;-80
2023/05/25 08:33:06;;;;;;;8.37;5.63;;;18.30;52.10;;;;;;6291288;28;20237;-81
2023/05/25 08:36:10;;;;;;;7.07;5.60;;;18.60;52.30;;;;;;6318623;27;20247;-84
2023/05/25 08:39:14;;;;;;;8.33;6.03;;;18.80;52.40;;;;;;6305145;27;20754;-81
2023/05/25 08:42:17;;;;;;;9.93;5.77;;;18.70;52.40;;;;;;6300234;28;20237;-82
2023/05/25 08:45:21;;;;;;;10.00;5.77;;;18.60;52.20;;;;;;6306455;27;20259;-79
2023/05/25 08:48:39;;;;;;;7.83;5.37;;;18.50;52.60;;;;;;6308093;28;20241;-80
2023/05/25 08:51:49;;;;;;;12.03;5.87;;;18.50;51.80;;;;;;6308262;27;20311;-80
2023/05/25 08:54:58;;;;;;;8.87;6.37;;;18.50;52.60;;;;;;6288595;28;20261;-80
2023/05/25 08:58:10;;;;;;;10.77;5.90;;;18.60;52.50;;;;;;6303679;28;20228;-78
2023/05/25 09:01:18;;;;;;;10.33;6.00;;;18.70;52.20;;;;;;6291748;28;20233;-81
2023/05/25 09:04:23;;;;;;;8.23;5.67;;;18.80;52.60;;;;;;6299918;27;20319;-82
2023/05/25 09:07:27;;;;;;;7.97;5.33;;;18.80;51.60;;;;;;6294535;27;20961;-82
2023/05/25 09:10:34;;;;;;;9.63;7.00;;;18.80;52.40;;;;;;6290195;28;20797;-79
2023/05/25 09:13:37;;;;;;;10.17;6.50;;;18.50;52.80;;;;;;6303449;27;20248;-83
2023/05/25 09:16:41;;;;;;;10.13;6.13;;;18.60;53.70;;;;;;6289342;28;20411;-82
2023/05/25 09:19:46;;;;;;;18.20;5.97;;;18.70;53.00;;;;;;6312368;27;20243;-81
2023/05/25 09:22:50;;;;;;;8.93;5.07;;;19.00;51.90;;;;;;6307660;27;20250;-79
2023/05/25 09:25:54;;;;;;;4.87;4.47;;;19.30;51.40;;;;;;6304990;28;20236;-79
2023/05/25 09:28:57;;;;;;;8.80;5.47;;;19.50;51.10;;;;;;6293443;28;20237;-81
2023/05/25 09:32:01;;;;;;;10.00;5.80;;;19.70;49.90;;;;;;6294120;28;20237;-80
2023/05/25 09:35:10;;;;;;;8.10;5.40;;;19.70;49.80;;;;;;6295230;27;20320;-82
2023/05/25 09:38:17;;;;;;;9.17;5.13;;;19.70;50.00;;;;;;6297721;28;20297;-81
2023/05/25 09:41:20;;;;;;;7.17;5.50;;;19.70;50.50;;;;;;6304039;28;20243;-82
2023/05/25 09:44:24;;;;;;;7.33;5.27;;;19.70;49.80;;;;;;6298448;27;20234;-82
2023/05/25 09:47:27;;;;;;;9.43;6.33;;;20.00;49.70;;;;;;6283120;28;20812;-81
2023/05/25 09:50:32;;;;;;;8.40;5.43;;;19.90;49.70;;;;;;6297924;28;20259;-82
2023/05/25 09:53:35;;;;;;;11.00;5.77;;;19.90;48.70;;;;;;6299993;27;20861;-83
2023/05/25 09:56:38;;;;;;;7.90;6.73;;;20.10;49.20;;;;;;6301049;27;20232;-82
2023/05/25 09:59:42;;;;;;;9.07;6.50;;;20.50;49.20;;;;;;6291261;28;20233;-81
2023/05/25 10:02:45;;;;;;;11.20;5.77;;;20.40;49.90;;;;;;6287184;28;20237;-83
2023/05/25 10:05:52;;;;;;;10.23;6.20;;;20.70;49.20;;;;;;6294559;28;20331;-82
2023/05/25 10:08:57;;;;;;;8.83;6.67;;;21.00;48.50;;;;;;6295010;28;20233;-83
2023/05/25 10:12:01;;;;;;;7.20;6.03;;;20.90;48.70;;;;;;6290261;28;20236;-80
2023/05/25 10:15:07;;;;;;;8.20;5.57;;;20.70;49.40;;;;;;6293064;28;20251;-82
2023/05/25 10:18:14;;;;;;;7.30;5.60;;;20.30;48.80;;;;;;6315373;27;21794;-82
2023/05/25 10:21:20;;;;;;;14.63;5.70;;;19.90;49.80;;;;;;6292753;27;20310;-82
2023/05/25 10:24:31;;;;;;;11.23;5.93;;;20.00;50.00;;;;;;6297367;28;20553;-80
2023/05/25 10:27:39;;;;;;;7.00;5.47;;;19.60;49.80;;;;;;6308431;27;20325;-80
2023/05/25 10:30:43;;;;;;;6.77;5.40;;;19.70;50.00;;;;;;6289986;28;20233;-80
2023/05/25 10:33:47;;;;;;;8.17;6.27;;;19.50;50.20;;;;;;6286105;28;20678;-79
2023/05/25 10:36:58;;;;;;;7.40;5.83;;;19.70;49.80;;;;;;6288105;27;20854;-80
2023/05/25 10:40:02;;;;;;;7.90;5.23;;;19.70;50.30;;;;;;6306526;27;20310;-80
2023/05/25 10:43:06;;;;;;;8.27;5.70;;;20.20;50.00;;;;;;6289795;28;20292;-80
2023/05/25 10:46:11;;;;;;;9.10;6.30;;;20.10;49.70;;;;;;6291658;27;20321;-81
2023/05/25 10:49:25;;;;;;;6.83;6.13;;;20.00;50.50;;;;;;6288589;28;20226;-80
2023/05/25 10:52:30;;;;;;;6.47;5.87;;;20.30;50.90;;;;;;6289257;28;20237;-81
2023/05/25 10:55:42;;;;;;;10.27;6.73;;;20.50;50.10;;;;;;6291352;27;20276;-80
2023/05/25 10:58:46;;;;;;;8.53;5.70;;;20.60;49.90;;;;;;6303536;28;20921;-83
2023/05/25 11:01:51;;;;;;;6.97;6.27;;;20.90;48.50;;;;;;6312582;28;20237;-81
2023/05/25 11:05:28;;;;;;;6.97;5.73;;;21.10;48.50;;;;;;6311325;28;20225;-80
2023/05/25 11:08:49;;;;;;;8.70;5.97;;;20.60;49.30;;;;;;6317646;28;20234;-80
2023/05/25 11:12:03;;;;;;;7.73;5.90;;;20.00;49.70;;;;;;6287058;28;20234;-79
2023/05/25 11:15:15;;;;;;;7.13;6.53;;;19.80;50.40;;;;;;6293830;28;20243;-80
2023/05/25 11:18:18;;;;;;;10.20;6.60;;;20.10;50.40;;;;;;6291333;28;20284;-78
2023/05/25 11:21:39;;;;;;;8.07;6.20;;;19.90;50.70;;;;;;6279302;27;20301;-78
2023/05/25 11:24:44;;;;;;;8.47;6.27;;;20.00;50.00;;;;;;6289299;28;20742;-80
2023/05/25 11:27:48;;;;;;;6.37;5.77;;;19.90;50.80;;;;;;6287556;28;20314;-79
2023/05/25 11:30:51;;;;;;;8.43;5.83;;;20.30;50.20;;;;;;6296017;27;20379;-80
2023/05/25 11:33:58;;;;;;;6.83;6.17;;;20.60;49.40;;;;;;6284717;27;20309;-78
2023/05/25 11:37:02;;;;;;;7.93;6.33;;;20.70;49.40;;;;;;6286782;27;20672;-79
2023/05/25 11:40:09;;;;;;;8.37;6.93;;;20.50;49.30;;;;;;6279790;28;20240;-79
2023/05/25 11:43:15;;;;;;;7.77;6.10;;;20.40;49.50;;;;;;6287642;28;20262;-81
2023/05/25 11:46:18;;;;;;;7.33;6.33;;;20.30;49.90;;;;;;6286821;27;20229;-82
2023/05/25 11:49:21;;;;;;;9.53;6.33;;;20.60;49.40;;;;;;6289696;28;20799;-80
2023/05/25 11:52:25;;;;;;;6.43;6.00;;;20.80;48.80;;;;;;6303475;28;20260;-79
2023/05/25 11:55:30;;;;;;;6.33;5.83;;;20.60;49.70;;;;;;6292564;28;20225;-81
2023/05/25 11:58:34;;;;;;;9.30;6.43;;;20.70;48.90;;;;;;6285975;28;20295;-81
2023/05/25 12:01:37;;;;;;;6.77;6.03;;;20.80;49.10;;;;;;6287720;28;20338;-81
2023/05/25 12:04:41;;;;;;;6.80;6.10;;;20.70;49.40;;;;;;6295012;28;20237;-80
2023/05/25 12:07:45;;;;;;;8.30;5.83;;;21.20;48.80;;;;;;6300179;27;20244;-81
2023/05/25 12:10:53;;;;;;;6.53;5.87;;;21.20;48.40;;;;;;6293626;28;20979;-81
2023/05/25 12:13:57;;;;;;;6.47;5.70;;;21.60;48.70;;;;;;6293937;28;20264;-80
2023/05/25 12:17:00;;;;;;;7.00;6.40;;;21.90;48.20;;;;;;6295703;27;20311;-82
2023/05/25 12:20:06;;;;;;;7.03;5.70;;;21.70;48.60;;;;;;6289129;27;20277;-82
2023/05/25 12:23:10;;;;;;;6.60;6.10;;;21.50;48.90;;;;;;6281692;28;20229;-81
2023/05/25 12:26:17;;;;;;;8.47;6.13;;;21.40;48.80;;;;;;6297302;28;20257;-80
2023/05/25 12:29:21;;;;;;;8.33;6.90;;;21.40;49.60;;;;;;6299870;28;20229;-80
2023/05/25 12:32:24;;;;;;;8.47;6.90;;;21.50;49.40;;;;;;6290349;28;20509;-81
2023/05/25 12:35:27;;;;;;;7.20;6.50;;;21.70;49.60;;;;;;6282288;27;20725;-82
2023/05/25 12:38:30;;;;;;;8.20;6.00;;;21.50;49.40;;;;;;6326103;28;20301;-82
2023/05/25 12:41:48;;;;;;;7.67;6.77;;;21.70;49.60;;;;;;6291911;28;20276;-81
2023/05/25 12:44:59;;;;;;;9.73;6.50;;;21.90;49.40;;;;;;6290406;28;20249;-81
2023/05/25 12:48:03;;;;;;;9.63;6.30;;;22.20;49.10;;;;;;6290960;28;20232;-81
2023/05/25 12:51:08;;;;;;;7.87;5.97;;;22.20;49.30;;;;;;6287966;28;20297;-83
2023/05/25 12:54:11;;;;;;;13.03;7.47;;;22.00;49.50;;;;;;6292367;28;20268;-83
2023/05/25 12:57:17;;;;;;;10.97;6.80;;;21.90;50.00;;;;;;6291377;28;20244;-82
2023/05/25 13:00:22;;;;;;;11.87;6.97;;;21.90;49.20;;;;;;6296133;28;20475;-81
2023/05/25 13:03:25;;;;;;;10.30;6.67;;;21.90;49.40;;;;;;6303281;28;20741;-80
2023/05/25 13:06:29;;;;;;;8.13;6.87;;;22.10;49.10;;;;;;6294700;28;20896;-83
2023/05/25 13:09:32;;;;;;;8.13;6.77;;;22.30;48.70;;;;;;6289076;28;20817;-83
2023/05/25 13:12:37;;;;;;;8.30;7.43;;;21.90;49.40;;;;;;6295137;28;20240;-82
2023/05/25 13:15:40;;;;;;;7.93;6.83;;;21.80;49.40;;;;;;6321901;28;20228;-80
2023/05/25 13:18:43;;;;;;;8.53;6.70;;;21.40;49.90;;;;;;6327916;28;20220;-82
2023/05/25 13:21:48;;;;;;;6.60;5.67;;;21.10;49.60;;;;;;6328123;27;20229;-82
2023/05/25 13:24:51;;;;;;;8.40;6.33;;;20.90;49.80;;;;;;6319032;28;20229;-82
2023/05/25 13:27:58;;;;;;;7.87;6.87;;;20.70;50.70;;;;;;6297441;28;20237;-82
2023/05/25 13:31:02;;;;;;;6.83;6.00;;;20.50;51.20;;;;;;6292226;28;20245;-81
2023/05/25 13:34:05;;;;;;;7.90;6.83;;;20.50;51.20;;;;;;6286224;28;20265;-81
2023/05/25 13:37:08;;;;;;;7.13;6.00;;;20.50;51.40;;;;;;6287870;28;20779;-82
2023/05/25 13:40:12;;;;;;;6.20;5.57;;;20.30;51.20;;;;;;6282084;28;20313;-83
2023/05/25 13:43:17;;;;;;;7.33;5.83;;;20.40;51.20;;;;;;6296036;27;20248;-81
2023/05/25 13:46:20;;;;;;;10.73;6.07;;;20.50;51.60;;;;;;6311894;28;20241;-81
2023/05/25 13:49:36;;;;;;;6.30;5.13;;;20.70;50.10;;;;;;6286875;28;20368;-83
2023/05/25 13:52:40;;;;;;;7.80;5.87;;;20.90;49.70;;;;;;6291583;27;20240;-80
2023/05/25 13:55:43;;;;;;;8.97;6.10;;;21.00;49.50;;;;;;6303819;27;20236;-81
2023/05/25 13:58:48;;;;;;;7.03;5.87;;;20.90;49.20;;;;;;6299444;28;20240;-80
2023/05/25 14:01:51;;;;;;;8.17;6.03;;;20.80;49.90;;;;;;6297059;27;20711;-80
2023/05/25 14:04:57;;;;;;;9.47;6.20;;;20.70;50.20;;;;;;6290175;28;20749;-80
2023/05/25 14:08:03;;;;;;;7.20;5.60;;;20.80;50.00;;;;;;6286897;28;20316;-82
2023/05/25 14:11:06;;;;;;;6.63;5.83;;;20.80;50.30;;;;;;6294253;28;20253;-82
2023/05/25 14:14:11;;;;;;;7.33;5.67;;;20.80;49.70;;;;;;6290049;28;20266;-82
2023/05/25 14:17:32;;;;;;;7.63;5.90;;;20.80;49.90;;;;;;6304882;27;20283;-82
2023/05/25 14:20:36;;;;;;;8.90;6.23;;;20.60;50.00;;;;;;6301877;27;20226;-81
2023/05/25 14:23:40;;;;;;;6.13;5.63;;;20.60;49.70;;;;;;6298592;28;20233;-83
2023/05/25 14:26:43;;;;;;;8.77;6.23;;;20.70;49.90;;;;;;6292445;28;20894;-82
2023/05/25 14:29:49;;;;;;;6.23;5.67;;;20.60;49.80;;;;;;6304735;27;20228;-81
2023/05/25 14:32:52;;;;;;;6.37;5.83;;;20.70;50.10;;;;;;6297237;28;21703;-80
2023/05/25 14:35:56;;;;;;;6.47;5.93;;;20.80;49.60;;;;;;6305392;27;20244;-81
2023/05/25 14:38:59;;;;;;;7.17;6.37;;;21.10;49.40;;;;;;6301591;27;20228;-80
2023/05/25 14:42:06;;;;;;;7.73;6.50;;;21.30;49.60;;;;;;6285420;28;20236;-81
2023/05/25 14:45:11;;;;;;;7.43;5.93;;;21.50;48.60;;;;;;6311595;27;20597;-76
2023/05/25 14:48:21;;;;;;;6.80;6.07;;;21.30;48.90;;;;;;6296360;28;20609;-75
2023/05/25 14:51:25;;;;;;;6.77;6.20;;;21.40;48.90;;;;;;6295510;28;20252;-75
2023/05/25 14:54:28;;;;;;;6.50;6.00;;;21.60;48.60;;;;;;6289657;27;20225;-76
2023/05/25 14:57:31;;;;;;;7.43;6.73;;;21.50;48.60;;;;;;6282370;27;20248;-77
2023/05/25 15:00:36;;;;;;;7.40;6.50;;;21.60;48.60;;;;;;6288076;28;20259;-75
2023/05/25 15:03:39;;;;;;;8.70;6.87;;;21.50;48.50;;;;;;6289744;27;20309;-77
2023/05/25 15:06:42;;;;;;;11.33;6.93;;;21.20;48.60;;;;;;6288620;27;20228;-74
2023/05/25 15:09:46;;;;;;;6.63;6.13;;;20.80;49.10;;;;;;6287015;28;20230;-76
2023/05/25 15:12:49;;;;;;;7.57;6.30;;;20.80;49.70;;;;;;6285091;28;20303;-75
2023/05/25 15:15:56;;;;;;;6.70;6.10;;;21.10;49.50;;;;;;6295465;28;20296;-77
2023/05/25 15:18:59;;;;;;;7.03;6.27;;;21.40;49.10;;;;;;6284969;28;20259;-75
2023/05/25 15:22:02;;;;;;;8.47;5.60;;;21.50;48.80;;;;;;6287994;27;20241;-77
2023/05/25 15:25:06;;;;;;;6.33;5.73;;;21.50;48.50;;;;;;6288159;28;20826;-78
2023/05/25 15:28:09;;;;;;;6.03;5.33;;;21.50;48.30;;;;;;6289355;28;20236;-75
2023/05/25 15:31:15;;;;;;;5.53;5.03;;;21.40;48.70;;;;;;6280366;28;20672;-77
2023/05/25 15:34:18;;;;;;;5.97;5.47;;;21.50;48.10;;;;;;6300948;28;20379;-75
2023/05/25 15:37:21;;;;;;;7.13;6.47;;;21.50;48.10;;;;;;6309192;27;20322;-77
2023/05/25 15:40:24;;;;;;;5.57;5.13;;;21.40;48.50;;;;;;6277576;28;20402;-75
2023/05/25 15:43:27;;;;;;;6.70;6.27;;;21.40;48.30;;;;;;6290879;27;20257;-75
2023/05/25 15:46:32;;;;;;;5.77;5.23;;;21.50;48.20;;;;;;6293273;28;20308;-83
2023/05/25 15:49:36;;;;;;;8.30;5.70;;;21.50;48.20;;;;;;6293807;28;20247;-83
2023/05/25 15:52:40;;;;;;;8.27;5.60;;;21.70;47.90;;;;;;6296425;28;20233;-82
2023/05/25 15:55:43;;;;;;;6.57;5.70;;;21.80;47.30;;;;;;6312477;27;20745;-84
2023/05/25 15:58:48;;;;;;;7.33;6.13;;;21.80;47.70;;;;;;6292725;28;20336;-83